sensor_id;sensor_type;location;lat;lon;timestamp;P1;durP1;ratioP1;P2;durP2;ratioP2
49578;SDS011;35483;50.828;3.228;2024-01-15T00:02:17;10.68;;;8.35;;
49578;SDS011;35483;50.828;3.228;2024-01-15T00:04:44;9.30;;;7.78;;
49578;SDS011;35483;50.828;3.228;2024-01-15T00:07:09;7.70;;;6.93;;
49578;SDS011;35483;50.828;3.228;2024-01-15T00:09:35;7.40;;;4.40;;
49578;SDS011;35483;50.828;3.228;2024-01-15T00:12:01;5.60;;;4.40;;
49578;SDS011;35483;50.828;3.228;2024-01-15T00:14:27;5.22;;;4.10;;
49578;SDS011;35483;50.828;3.228;2024-01-15T00:16:53;5.22;;;4.60;;
49578;SDS011;35483;50.828;3.228;2024-01-15T00:19:23;6.03;;;4.68;;
49578;SDS011;35483;50.828;3.228;2024-01-15T00:21:49;5.60;;;4.85;;
49578;SDS011;35483;50.828;3.228;2024-01-15T00:24:16;5.10;;;4.60;;
49578;SDS011;35483;50.828;3.228;2024-01-15T00:26:42;4.60;;;4.20;;
49578;SDS011;35483;50.828;3.228;2024-01-15T00:29:08;5.03;;;4.10;;
49578;SDS011;35483;50.828;3.228;2024-01-15T00:31:36;4.40;;;4.00;;
49578;SDS011;35483;50.828;3.228;2024-01-15T00:34:01;4.40;;;4.00;;
49578;SDS011;35483;50.828;3.228;2024-01-15T00:36:27;4.25;;;3.85;;
49578;SDS011;35483;50.828;3.228;2024-01-15T00:38:53;4.60;;;4.10;;
49578;SDS011;35483;50.828;3.228;2024-01-15T00:41:20;5.63;;;4.47;;
49578;SDS011;35483;50.828;3.228;2024-01-15T00:43:46;4.70;;;4.18;;
49578;SDS011;35483;50.828;3.228;2024-01-15T00:46:11;4.82;;;4.05;;
49578;SDS011;35483;50.828;3.228;2024-01-15T00:48:37;4.13;;;3.70;;
49578;SDS011;35483;50.828;3.228;2024-01-15T00:51:04;4.03;;;3.58;;
49578;SDS011;35483;50.828;3.228;2024-01-15T00:53:29;5.18;;;3.92;;
49578;SDS011;35483;50.828;3.228;2024-01-15T00:55:56;4.57;;;3.83;;
49578;SDS011;35483;50.828;3.228;2024-01-15T00:58:22;4.28;;;3.83;;
49578;SDS011;35483;50.828;3.228;2024-01-15T01:00:49;4.43;;;3.95;;
49578;SDS011;35483;50.828;3.228;2024-01-15T01:03:15;4.13;;;3.60;;
49578;SDS011;35483;50.828;3.228;2024-01-15T01:05:41;5.22;;;3.75;;
49578;SDS011;35483;50.828;3.228;2024-01-15T01:08:07;3.63;;;3.28;;
49578;SDS011;35483;50.828;3.228;2024-01-15T01:10:32;3.85;;;3.35;;
49578;SDS011;35483;50.828;3.228;2024-01-15T01:12:58;3.95;;;3.35;;
49578;SDS011;35483;50.828;3.228;2024-01-15T01:15:24;4.25;;;3.85;;
49578;SDS011;35483;50.828;3.228;2024-01-15T01:17:50;4.13;;;3.72;;
49578;SDS011;35483;50.828;3.228;2024-01-15T01:20:15;4.55;;;3.97;;
49578;SDS011;35483;50.828;3.228;2024-01-15T01:22:41;4.70;;;3.67;;
49578;SDS011;35483;50.828;3.228;2024-01-15T01:25:07;4.05;;;3.47;;
49578;SDS011;35483;50.828;3.228;2024-01-15T01:27:34;5.63;;;3.53;;
49578;SDS011;35483;50.828;3.228;2024-01-15T01:30:00;4.82;;;3.15;;
49578;SDS011;35483;50.828;3.228;2024-01-15T01:32:26;4.88;;;3.30;;
49578;SDS011;35483;50.828;3.228;2024-01-15T01:34:52;3.65;;;3.35;;
49578;SDS011;35483;50.828;3.228;2024-01-15T01:37:18;5.53;;;3.33;;
49578;SDS011;35483;50.828;3.228;2024-01-15T01:39:44;4.25;;;3.33;;
49578;SDS011;35483;50.828;3.228;2024-01-15T01:42:11;3.60;;;3.10;;
49578;SDS011;35483;50.828;3.228;2024-01-15T01:44:37;3.95;;;3.17;;
49578;SDS011;35483;50.828;3.228;2024-01-15T01:47:03;4.15;;;3.03;;
49578;SDS011;35483;50.828;3.228;2024-01-15T01:49:30;4.15;;;3.25;;
49578;SDS011;35483;50.828;3.228;2024-01-15T01:51:56;4.80;;;3.70;;
49578;SDS011;35483;50.828;3.228;2024-01-15T01:54:24;4.53;;;3.67;;
49578;SDS011;35483;50.828;3.228;2024-01-15T01:56:51;6.05;;;4.63;;
49578;SDS011;35483;50.828;3.228;2024-01-15T01:59:17;5.72;;;4.25;;
49578;SDS011;35483;50.828;3.228;2024-01-15T02:01:46;6.32;;;4.40;;
49578;SDS011;35483;50.828;3.228;2024-01-15T02:04:13;4.47;;;4.07;;
49578;SDS011;35483;50.828;3.228;2024-01-15T02:06:40;5.18;;;4.40;;
49578;SDS011;35483;50.828;3.228;2024-01-15T02:09:05;6.72;;;4.20;;
49578;SDS011;35483;50.828;3.228;2024-01-15T02:11:33;4.70;;;3.88;;
49578;SDS011;35483;50.828;3.228;2024-01-15T02:14:00;6.90;;;4.18;;
49578;SDS011;35483;50.828;3.228;2024-01-15T02:16:26;4.40;;;4.00;;
49578;SDS011;35483;50.828;3.228;2024-01-15T02:18:52;5.90;;;3.95;;
49578;SDS011;35483;50.828;3.228;2024-01-15T02:21:17;4.20;;;3.80;;
49578;SDS011;35483;50.828;3.228;2024-01-15T02:23:43;5.78;;;3.63;;
49578;SDS011;35483;50.828;3.228;2024-01-15T02:26:10;5.47;;;3.72;;
49578;SDS011;35483;50.828;3.228;2024-01-15T02:28:38;3.95;;;3.65;;
49578;SDS011;35483;50.828;3.228;2024-01-15T02:31:03;4.03;;;3.63;;
49578;SDS011;35483;50.828;3.228;2024-01-15T02:33:29;5.07;;;3.50;;
49578;SDS011;35483;50.828;3.228;2024-01-15T02:35:55;4.55;;;3.58;;
49578;SDS011;35483;50.828;3.228;2024-01-15T02:38:21;4.97;;;3.55;;
49578;SDS011;35483;50.828;3.228;2024-01-15T02:40:47;4.07;;;3.10;;
49578;SDS011;35483;50.828;3.228;2024-01-15T02:43:12;4.25;;;3.38;;
49578;SDS011;35483;50.828;3.228;2024-01-15T02:45:39;5.13;;;3.33;;
49578;SDS011;35483;50.828;3.228;2024-01-15T02:48:05;3.88;;;3.33;;
49578;SDS011;35483;50.828;3.228;2024-01-15T02:50:31;5.80;;;4.10;;
49578;SDS011;35483;50.828;3.228;2024-01-15T02:52:56;8.57;;;3.35;;
49578;SDS011;35483;50.828;3.228;2024-01-15T02:55:22;4.40;;;3.30;;
49578;SDS011;35483;50.828;3.228;2024-01-15T02:57:50;3.45;;;2.90;;
49578;SDS011;35483;50.828;3.228;2024-01-15T03:00:16;5.00;;;3.35;;
49578;SDS011;35483;50.828;3.228;2024-01-15T03:02:44;4.53;;;3.50;;
49578;SDS011;35483;50.828;3.228;2024-01-15T03:05:10;5.90;;;3.78;;
49578;SDS011;35483;50.828;3.228;2024-01-15T03:07:36;4.35;;;3.80;;
49578;SDS011;35483;50.828;3.228;2024-01-15T03:10:02;6.38;;;4.20;;
49578;SDS011;35483;50.828;3.228;2024-01-15T03:12:28;4.82;;;3.63;;
49578;SDS011;35483;50.828;3.228;2024-01-15T03:14:53;7.38;;;3.75;;
49578;SDS011;35483;50.828;3.228;2024-01-15T03:17:19;3.92;;;3.45;;
49578;SDS011;35483;50.828;3.228;2024-01-15T03:19:46;4.70;;;3.75;;
49578;SDS011;35483;50.828;3.228;2024-01-15T03:22:12;4.07;;;3.28;;
49578;SDS011;35483;50.828;3.228;2024-01-15T03:24:37;3.22;;;2.92;;
49578;SDS011;35483;50.828;3.228;2024-01-15T03:27:03;5.28;;;3.53;;
49578;SDS011;35483;50.828;3.228;2024-01-15T03:29:30;3.53;;;3.05;;
49578;SDS011;35483;50.828;3.228;2024-01-15T03:31:56;4.45;;;2.95;;
49578;SDS011;35483;50.828;3.228;2024-01-15T03:34:22;4.18;;;3.20;;
49578;SDS011;35483;50.828;3.228;2024-01-15T03:36:47;4.78;;;3.47;;
49578;SDS011;35483;50.828;3.228;2024-01-15T03:39:13;6.05;;;3.28;;
49578;SDS011;35483;50.828;3.228;2024-01-15T03:41:39;3.50;;;3.17;;
49578;SDS011;35483;50.828;3.228;2024-01-15T03:44:05;3.22;;;2.97;;
49578;SDS011;35483;50.828;3.228;2024-01-15T03:46:31;4.30;;;3.33;;
49578;SDS011;35483;50.828;3.228;2024-01-15T03:48:57;4.03;;;3.13;;
49578;SDS011;35483;50.828;3.228;2024-01-15T03:51:23;4.43;;;3.05;;
49578;SDS011;35483;50.828;3.228;2024-01-15T03:53:48;3.70;;;3.00;;
49578;SDS011;35483;50.828;3.228;2024-01-15T03:56:14;3.45;;;2.60;;
49578;SDS011;35483;50.828;3.228;2024-01-15T03:58:40;4.28;;;2.70;;
49578;SDS011;35483;50.828;3.228;2024-01-15T04:01:09;3.45;;;2.72;;
49578;SDS011;35483;50.828;3.228;2024-01-15T04:03:35;3.85;;;3.03;;
49578;SDS011;35483;50.828;3.228;2024-01-15T04:06:03;3.47;;;2.60;;
49578;SDS011;35483;50.828;3.228;2024-01-15T04:08:29;3.03;;;2.28;;
49578;SDS011;35483;50.828;3.228;2024-01-15T04:10:55;2.97;;;2.63;;
49578;SDS011;35483;50.828;3.228;2024-01-15T04:13:21;2.80;;;2.13;;
49578;SDS011;35483;50.828;3.228;2024-01-15T04:15:47;4.15;;;2.80;;
49578;SDS011;35483;50.828;3.228;2024-01-15T04:18:13;4.47;;;3.20;;
49578;SDS011;35483;50.828;3.228;2024-01-15T04:20:39;3.38;;;2.55;;
49578;SDS011;35483;50.828;3.228;2024-01-15T04:23:04;2.05;;;1.90;;
49578;SDS011;35483;50.828;3.228;2024-01-15T04:25:30;3.65;;;2.25;;
49578;SDS011;35483;50.828;3.228;2024-01-15T04:27:56;4.30;;;2.55;;
49578;SDS011;35483;50.828;3.228;2024-01-15T04:30:23;2.47;;;2.15;;
49578;SDS011;35483;50.828;3.228;2024-01-15T04:32:49;4.90;;;2.55;;
49578;SDS011;35483;50.828;3.228;2024-01-15T04:35:14;5.05;;;2.53;;
49578;SDS011;35483;50.828;3.228;2024-01-15T04:37:40;4.82;;;1.83;;
49578;SDS011;35483;50.828;3.228;2024-01-15T04:40:07;2.88;;;2.05;;
49578;SDS011;35483;50.828;3.228;2024-01-15T04:42:33;4.38;;;2.22;;
49578;SDS011;35483;50.828;3.228;2024-01-15T04:44:59;2.10;;;1.67;;
49578;SDS011;35483;50.828;3.228;2024-01-15T04:47:25;2.90;;;1.90;;
49578;SDS011;35483;50.828;3.228;2024-01-15T04:49:51;3.92;;;1.88;;
49578;SDS011;35483;50.828;3.228;2024-01-15T04:52:16;2.95;;;1.83;;
49578;SDS011;35483;50.828;3.228;2024-01-15T04:54:42;3.00;;;2.03;;
49578;SDS011;35483;50.828;3.228;2024-01-15T04:57:08;6.38;;;2.15;;
49578;SDS011;35483;50.828;3.228;2024-01-15T04:59:34;4.25;;;2.22;;
49578;SDS011;35483;50.828;3.228;2024-01-15T05:02:00;5.25;;;2.15;;
49578;SDS011;35483;50.828;3.228;2024-01-15T05:04:26;3.85;;;2.00;;
49578;SDS011;35483;50.828;3.228;2024-01-15T05:06:52;4.10;;;2.05;;
49578;SDS011;35483;50.828;3.228;2024-01-15T05:09:20;3.53;;;1.98;;
49578;SDS011;35483;50.828;3.228;2024-01-15T05:11:45;4.22;;;1.83;;
49578;SDS011;35483;50.828;3.228;2024-01-15T05:14:11;3.17;;;1.73;;
49578;SDS011;35483;50.828;3.228;2024-01-15T05:16:56;3.05;;;2.17;;
49578;SDS011;35483;50.828;3.228;2024-01-15T05:19:22;4.03;;;2.23;;
49578;SDS011;35483;50.828;3.228;2024-01-15T05:21:47;2.60;;;2.00;;
49578;SDS011;35483;50.828;3.228;2024-01-15T05:24:13;3.22;;;2.55;;
49578;SDS011;35483;50.828;3.228;2024-01-15T05:26:39;2.22;;;2.03;;
49578;SDS011;35483;50.828;3.228;2024-01-15T05:29:05;7.22;;;2.53;;
49578;SDS011;35483;50.828;3.228;2024-01-15T05:31:31;2.88;;;2.03;;
49578;SDS011;35483;50.828;3.228;2024-01-15T05:33:57;3.45;;;2.13;;
49578;SDS011;35483;50.828;3.228;2024-01-15T05:36:22;3.05;;;2.22;;
49578;SDS011;35483;50.828;3.228;2024-01-15T05:38:48;7.43;;;2.67;;
49578;SDS011;35483;50.828;3.228;2024-01-15T05:41:14;3.15;;;2.47;;
49578;SDS011;35483;50.828;3.228;2024-01-15T05:43:40;2.80;;;2.28;;
49578;SDS011;35483;50.828;3.228;2024-01-15T05:46:06;2.42;;;2.17;;
49578;SDS011;35483;50.828;3.228;2024-01-15T05:48:32;3.75;;;2.10;;
49578;SDS011;35483;50.828;3.228;2024-01-15T05:50:58;3.95;;;2.85;;
49578;SDS011;35483;50.828;3.228;2024-01-15T05:53:24;5.20;;;2.90;;
49578;SDS011;35483;50.828;3.228;2024-01-15T05:55:50;2.88;;;2.22;;
49578;SDS011;35483;50.828;3.228;2024-01-15T05:58:16;3.60;;;2.50;;
49578;SDS011;35483;50.828;3.228;2024-01-15T06:00:41;4.15;;;2.00;;
49578;SDS011;35483;50.828;3.228;2024-01-15T06:03:07;2.25;;;1.83;;
49578;SDS011;35483;50.828;3.228;2024-01-15T06:05:33;3.72;;;2.33;;
49578;SDS011;35483;50.828;3.228;2024-01-15T06:07:59;3.60;;;1.98;;
49578;SDS011;35483;50.828;3.228;2024-01-15T06:10:24;3.60;;;1.92;;
49578;SDS011;35483;50.828;3.228;2024-01-15T06:12:51;2.55;;;1.90;;
49578;SDS011;35483;50.828;3.228;2024-01-15T06:15:17;4.20;;;2.15;;
49578;SDS011;35483;50.828;3.228;2024-01-15T06:17:43;3.25;;;2.53;;
49578;SDS011;35483;50.828;3.228;2024-01-15T06:20:09;2.85;;;1.80;;
49578;SDS011;35483;50.828;3.228;2024-01-15T06:22:35;4.10;;;1.55;;
49578;SDS011;35483;50.828;3.228;2024-01-15T06:25:02;4.22;;;1.88;;
49578;SDS011;35483;50.828;3.228;2024-01-15T06:27:28;4.80;;;1.80;;
49578;SDS011;35483;50.828;3.228;2024-01-15T06:29:53;4.80;;;1.80;;
49578;SDS011;35483;50.828;3.228;2024-01-15T06:32:21;4.85;;;1.80;;
49578;SDS011;35483;50.828;3.228;2024-01-15T06:34:47;4.93;;;1.85;;
49578;SDS011;35483;50.828;3.228;2024-01-15T06:37:12;8.18;;;2.38;;
49578;SDS011;35483;50.828;3.228;2024-01-15T06:39:38;4.70;;;1.88;;
49578;SDS011;35483;50.828;3.228;2024-01-15T06:42:04;3.88;;;1.60;;
49578;SDS011;35483;50.828;3.228;2024-01-15T06:44:30;6.68;;;1.90;;
49578;SDS011;35483;50.828;3.228;2024-01-15T06:46:55;6.53;;;2.33;;
49578;SDS011;35483;50.828;3.228;2024-01-15T06:49:22;3.45;;;1.83;;
49578;SDS011;35483;50.828;3.228;2024-01-15T06:51:48;3.83;;;1.92;;
49578;SDS011;35483;50.828;3.228;2024-01-15T06:54:14;3.08;;;1.92;;
49578;SDS011;35483;50.828;3.228;2024-01-15T06:56:40;4.07;;;1.85;;
49578;SDS011;35483;50.828;3.228;2024-01-15T06:59:06;2.97;;;1.80;;
49578;SDS011;35483;50.828;3.228;2024-01-15T07:01:31;3.22;;;2.08;;
49578;SDS011;35483;50.828;3.228;2024-01-15T07:03:57;4.28;;;1.83;;
49578;SDS011;35483;50.828;3.228;2024-01-15T07:06:23;6.50;;;1.63;;
49578;SDS011;35483;50.828;3.228;2024-01-15T07:08:49;3.63;;;1.90;;
49578;SDS011;35483;50.828;3.228;2024-01-15T07:11:15;7.47;;;2.20;;
49578;SDS011;35483;50.828;3.228;2024-01-15T07:13:40;5.75;;;2.50;;
49578;SDS011;35483;50.828;3.228;2024-01-15T07:16:06;3.60;;;2.08;;
49578;SDS011;35483;50.828;3.228;2024-01-15T07:18:32;3.60;;;2.28;;
49578;SDS011;35483;50.828;3.228;2024-01-15T07:20:58;3.75;;;1.70;;
49578;SDS011;35483;50.828;3.228;2024-01-15T07:23:24;3.42;;;1.92;;
49578;SDS011;35483;50.828;3.228;2024-01-15T07:25:50;6.75;;;2.50;;
49578;SDS011;35483;50.828;3.228;2024-01-15T07:28:15;4.00;;;2.17;;
49578;SDS011;35483;50.828;3.228;2024-01-15T07:30:41;4.07;;;1.98;;
49578;SDS011;35483;50.828;3.228;2024-01-15T07:33:07;7.45;;;2.13;;
49578;SDS011;35483;50.828;3.228;2024-01-15T07:35:32;4.40;;;2.30;;
49578;SDS011;35483;50.828;3.228;2024-01-15T07:37:58;2.88;;;1.85;;
49578;SDS011;35483;50.828;3.228;2024-01-15T07:40:24;3.40;;;1.88;;
49578;SDS011;35483;50.828;3.228;2024-01-15T07:42:50;5.65;;;2.13;;
49578;SDS011;35483;50.828;3.228;2024-01-15T07:45:16;2.75;;;2.17;;
49578;SDS011;35483;50.828;3.228;2024-01-15T07:47:43;2.80;;;1.63;;
49578;SDS011;35483;50.828;3.228;2024-01-15T07:50:09;8.70;;;2.20;;
49578;SDS011;35483;50.828;3.228;2024-01-15T07:52:35;4.90;;;1.90;;
49578;SDS011;35483;50.828;3.228;2024-01-15T07:55:01;3.05;;;2.10;;
49578;SDS011;35483;50.828;3.228;2024-01-15T07:57:28;4.35;;;2.30;;
49578;SDS011;35483;50.828;3.228;2024-01-15T07:59:54;2.80;;;1.90;;
49578;SDS011;35483;50.828;3.228;2024-01-15T08:02:20;3.75;;;2.00;;
49578;SDS011;35483;50.828;3.228;2024-01-15T08:04:46;4.70;;;2.08;;
49578;SDS011;35483;50.828;3.228;2024-01-15T08:07:12;3.72;;;2.00;;
49578;SDS011;35483;50.828;3.228;2024-01-15T08:09:38;3.03;;;1.90;;
49578;SDS011;35483;50.828;3.228;2024-01-15T08:12:06;3.08;;;1.98;;
49578;SDS011;35483;50.828;3.228;2024-01-15T08:14:32;3.88;;;2.17;;
49578;SDS011;35483;50.828;3.228;2024-01-15T08:16:57;4.10;;;2.10;;
49578;SDS011;35483;50.828;3.228;2024-01-15T08:19:23;4.45;;;2.40;;
49578;SDS011;35483;50.828;3.228;2024-01-15T08:21:49;4.82;;;2.10;;
49578;SDS011;35483;50.828;3.228;2024-01-15T08:24:15;4.57;;;2.10;;
49578;SDS011;35483;50.828;3.228;2024-01-15T08:26:42;5.07;;;2.33;;
49578;SDS011;35483;50.828;3.228;2024-01-15T08:29:08;3.53;;;2.20;;
49578;SDS011;35483;50.828;3.228;2024-01-15T08:31:33;3.47;;;2.30;;
49578;SDS011;35483;50.828;3.228;2024-01-15T08:33:59;4.90;;;2.80;;
49578;SDS011;35483;50.828;3.228;2024-01-15T08:36:26;5.90;;;2.35;;
49578;SDS011;35483;50.828;3.228;2024-01-15T08:38:54;4.30;;;2.33;;
49578;SDS011;35483;50.828;3.228;2024-01-15T08:41:21;4.03;;;2.35;;
49578;SDS011;35483;50.828;3.228;2024-01-15T08:43:47;5.25;;;2.40;;
49578;SDS011;35483;50.828;3.228;2024-01-15T08:46:13;4.43;;;2.20;;
49578;SDS011;35483;50.828;3.228;2024-01-15T08:48:38;4.72;;;2.97;;
49578;SDS011;35483;50.828;3.228;2024-01-15T08:51:05;4.03;;;2.35;;
49578;SDS011;35483;50.828;3.228;2024-01-15T08:53:31;5.82;;;2.38;;
49578;SDS011;35483;50.828;3.228;2024-01-15T08:55:57;3.22;;;2.50;;
49578;SDS011;35483;50.828;3.228;2024-01-15T08:58:23;2.95;;;2.45;;
49578;SDS011;35483;50.828;3.228;2024-01-15T09:00:50;6.45;;;2.95;;
49578;SDS011;35483;50.828;3.228;2024-01-15T09:03:16;5.43;;;2.53;;
49578;SDS011;35483;50.828;3.228;2024-01-15T09:05:42;3.92;;;2.30;;
49578;SDS011;35483;50.828;3.228;2024-01-15T09:08:07;2.97;;;1.98;;
49578;SDS011;35483;50.828;3.228;2024-01-15T09:10:33;2.65;;;1.92;;
49578;SDS011;35483;50.828;3.228;2024-01-15T09:12:59;6.85;;;2.70;;
49578;SDS011;35483;50.828;3.228;2024-01-15T09:15:25;6.90;;;2.20;;
49578;SDS011;35483;50.828;3.228;2024-01-15T09:17:51;3.55;;;2.80;;
49578;SDS011;35483;50.828;3.228;2024-01-15T09:20:16;4.75;;;2.28;;
49578;SDS011;35483;50.828;3.228;2024-01-15T09:22:43;5.50;;;2.20;;
49578;SDS011;35483;50.828;3.228;2024-01-15T09:25:09;3.78;;;2.63;;
49578;SDS011;35483;50.828;3.228;2024-01-15T09:27:35;1.88;;;1.55;;
49578;SDS011;35483;50.828;3.228;2024-01-15T09:30:02;5.47;;;2.13;;
49578;SDS011;35483;50.828;3.228;2024-01-15T09:32:28;2.88;;;1.98;;
49578;SDS011;35483;50.828;3.228;2024-01-15T09:34:54;6.78;;;2.03;;
49578;SDS011;35483;50.828;3.228;2024-01-15T09:37:20;3.40;;;1.77;;
49578;SDS011;35483;50.828;3.228;2024-01-15T09:39:47;2.95;;;1.70;;
49578;SDS011;35483;50.828;3.228;2024-01-15T09:42:14;3.35;;;1.83;;
49578;SDS011;35483;50.828;3.228;2024-01-15T09:44:41;3.33;;;1.67;;
49578;SDS011;35483;50.828;3.228;2024-01-15T09:47:07;6.10;;;2.03;;
49578;SDS011;35483;50.828;3.228;2024-01-15T09:49:33;6.57;;;2.38;;
49578;SDS011;35483;50.828;3.228;2024-01-15T09:51:59;3.35;;;1.83;;
49578;SDS011;35483;50.828;3.228;2024-01-15T09:54:27;2.13;;;1.67;;
49578;SDS011;35483;50.828;3.228;2024-01-15T09:56:53;6.07;;;1.88;;
49578;SDS011;35483;50.828;3.228;2024-01-15T09:59:20;3.72;;;1.30;;
49578;SDS011;35483;50.828;3.228;2024-01-15T10:01:46;4.28;;;1.65;;
49578;SDS011;35483;50.828;3.228;2024-01-15T10:04:16;3.17;;;1.30;;
49578;SDS011;35483;50.828;3.228;2024-01-15T10:06:43;2.28;;;1.92;;
49578;SDS011;35483;50.828;3.228;2024-01-15T10:09:14;5.95;;;1.60;;
49578;SDS011;35483;50.828;3.228;2024-01-15T10:11:44;3.25;;;1.30;;
49578;SDS011;35483;50.828;3.228;2024-01-15T10:14:10;3.35;;;1.60;;
49578;SDS011;35483;50.828;3.228;2024-01-15T10:16:39;4.70;;;2.10;;
49578;SDS011;35483;50.828;3.228;2024-01-15T10:19:05;6.65;;;1.92;;
49578;SDS011;35483;50.828;3.228;2024-01-15T10:21:32;4.97;;;2.20;;
49578;SDS011;35483;50.828;3.228;2024-01-15T10:24:01;3.65;;;1.58;;
49578;SDS011;35483;50.828;3.228;2024-01-15T10:26:28;3.97;;;1.52;;
49578;SDS011;35483;50.828;3.228;2024-01-15T10:28:55;6.40;;;1.70;;
49578;SDS011;35483;50.828;3.228;2024-01-15T10:31:21;7.50;;;1.88;;
49578;SDS011;35483;50.828;3.228;2024-01-15T10:33:49;4.22;;;1.63;;
49578;SDS011;35483;50.828;3.228;2024-01-15T10:36:16;4.78;;;1.90;;
49578;SDS011;35483;50.828;3.228;2024-01-15T10:38:45;5.40;;;1.67;;
49578;SDS011;35483;50.828;3.228;2024-01-15T10:41:11;3.58;;;1.70;;
49578;SDS011;35483;50.828;3.228;2024-01-15T10:43:37;6.40;;;2.00;;
49578;SDS011;35483;50.828;3.228;2024-01-15T10:46:07;3.30;;;1.42;;
49578;SDS011;35483;50.828;3.228;2024-01-15T10:48:33;3.35;;;1.40;;
49578;SDS011;35483;50.828;3.228;2024-01-15T10:51:00;5.78;;;1.70;;
49578;SDS011;35483;50.828;3.228;2024-01-15T10:53:33;3.65;;;1.30;;
49578;SDS011;35483;50.828;3.228;2024-01-15T10:56:02;3.95;;;1.50;;
49578;SDS011;35483;50.828;3.228;2024-01-15T10:58:29;3.70;;;1.30;;
49578;SDS011;35483;50.828;3.228;2024-01-15T11:00:57;4.57;;;1.50;;
49578;SDS011;35483;50.828;3.228;2024-01-15T11:03:23;4.50;;;2.00;;
49578;SDS011;35483;50.828;3.228;2024-01-15T11:05:50;6.68;;;1.65;;
49578;SDS011;35483;50.828;3.228;2024-01-15T11:08:18;3.55;;;1.15;;
49578;SDS011;35483;50.828;3.228;2024-01-15T11:10:45;3.10;;;1.48;;
49578;SDS011;35483;50.828;3.228;2024-01-15T11:18:40;6.70;;;1.20;;
49578;SDS011;35483;50.828;3.228;2024-01-15T11:23:45;3.38;;;1.10;;
49578;SDS011;35483;50.828;3.228;2024-01-15T11:26:34;4.15;;;1.30;;
49578;SDS011;35483;50.828;3.228;2024-01-15T11:29:09;4.65;;;1.23;;
49578;SDS011;35483;50.828;3.228;2024-01-15T11:37:18;2.55;;;1.45;;
49578;SDS011;35483;50.828;3.228;2024-01-15T11:39:44;3.80;;;1.48;;
49578;SDS011;35483;50.828;3.228;2024-01-15T11:42:13;3.38;;;1.40;;
49578;SDS011;35483;50.828;3.228;2024-01-15T11:44:40;7.55;;;2.33;;
49578;SDS011;35483;50.828;3.228;2024-01-15T11:47:10;3.22;;;1.42;;
49578;SDS011;35483;50.828;3.228;2024-01-15T11:52:23;4.45;;;1.77;;
49578;SDS011;35483;50.828;3.228;2024-01-15T12:00:08;5.15;;;2.00;;
49578;SDS011;35483;50.828;3.228;2024-01-15T12:02:35;5.47;;;1.70;;
49578;SDS011;35483;50.828;3.228;2024-01-15T12:05:02;7.45;;;2.17;;
49578;SDS011;35483;50.828;3.228;2024-01-15T12:07:28;3.88;;;1.60;;
49578;SDS011;35483;50.828;3.228;2024-01-15T12:09:54;3.70;;;1.30;;
49578;SDS011;35483;50.828;3.228;2024-01-15T12:13:20;5.20;;;1.75;;
49578;SDS011;35483;50.828;3.228;2024-01-15T12:15:26;4.22;;;1.70;;
49578;SDS011;35483;50.828;3.228;2024-01-15T12:18:01;5.47;;;1.40;;
49578;SDS011;35483;50.828;3.228;2024-01-15T12:20:28;5.22;;;1.55;;
49578;SDS011;35483;50.828;3.228;2024-01-15T12:22:57;4.05;;;1.55;;
49578;SDS011;35483;50.828;3.228;2024-01-15T12:25:23;3.35;;;1.70;;
49578;SDS011;35483;50.828;3.228;2024-01-15T12:27:50;3.05;;;1.75;;
49578;SDS011;35483;50.828;3.228;2024-01-15T12:30:17;4.72;;;1.55;;
49578;SDS011;35483;50.828;3.228;2024-01-15T12:32:43;2.88;;;1.40;;
49578;SDS011;35483;50.828;3.228;2024-01-15T12:35:11;4.00;;;1.63;;
49578;SDS011;35483;50.828;3.228;2024-01-15T12:37:37;6.30;;;1.33;;
49578;SDS011;35483;50.828;3.228;2024-01-15T12:40:04;3.20;;;1.30;;
49578;SDS011;35483;50.828;3.228;2024-01-15T12:42:39;4.90;;;1.98;;
49578;SDS011;35483;50.828;3.228;2024-01-15T12:45:05;5.80;;;1.63;;
49578;SDS011;35483;50.828;3.228;2024-01-15T12:47:32;4.40;;;1.80;;
49578;SDS011;35483;50.828;3.228;2024-01-15T12:49:58;7.55;;;2.05;;
49578;SDS011;35483;50.828;3.228;2024-01-15T12:52:29;7.75;;;2.00;;
49578;SDS011;35483;50.828;3.228;2024-01-15T12:54:55;5.13;;;1.80;;
49578;SDS011;35483;50.828;3.228;2024-01-15T12:57:21;5.38;;;1.70;;
49578;SDS011;35483;50.828;3.228;2024-01-15T12:59:47;3.50;;;1.42;;
49578;SDS011;35483;50.828;3.228;2024-01-15T13:02:14;6.05;;;1.67;;
49578;SDS011;35483;50.828;3.228;2024-01-15T13:04:41;4.60;;;1.55;;
49578;SDS011;35483;50.828;3.228;2024-01-15T13:07:07;4.45;;;2.17;;
49578;SDS011;35483;50.828;3.228;2024-01-15T13:09:33;4.20;;;1.40;;
49578;SDS011;35483;50.828;3.228;2024-01-15T13:12:00;6.68;;;1.90;;
49578;SDS011;35483;50.828;3.228;2024-01-15T13:14:30;7.50;;;2.75;;
49578;SDS011;35483;50.828;3.228;2024-01-15T13:16:56;5.35;;;1.63;;
49578;SDS011;35483;50.828;3.228;2024-01-15T13:19:23;5.35;;;2.03;;
49578;SDS011;35483;50.828;3.228;2024-01-15T13:21:49;3.83;;;1.60;;
49578;SDS011;35483;50.828;3.228;2024-01-15T13:24:16;4.15;;;1.90;;
49578;SDS011;35483;50.828;3.228;2024-01-15T13:26:42;4.60;;;1.67;;
49578;SDS011;35483;50.828;3.228;2024-01-15T13:29:08;6.35;;;2.13;;
49578;SDS011;35483;50.828;3.228;2024-01-15T13:31:34;3.28;;;1.83;;
49578;SDS011;35483;50.828;3.228;2024-01-15T13:34:00;4.13;;;1.80;;
49578;SDS011;35483;50.828;3.228;2024-01-15T13:36:26;7.13;;;2.25;;
49578;SDS011;35483;50.828;3.228;2024-01-15T13:38:52;5.78;;;1.85;;
49578;SDS011;35483;50.828;3.228;2024-01-15T13:41:19;5.05;;;1.85;;
49578;SDS011;35483;50.828;3.228;2024-01-15T13:43:52;6.70;;;2.08;;
49578;SDS011;35483;50.828;3.228;2024-01-15T13:46:19;6.65;;;1.83;;
49578;SDS011;35483;50.828;3.228;2024-01-15T13:48:49;4.70;;;1.70;;
49578;SDS011;35483;50.828;3.228;2024-01-15T13:51:14;7.13;;;1.67;;
49578;SDS011;35483;50.828;3.228;2024-01-15T13:53:40;6.30;;;2.00;;
49578;SDS011;35483;50.828;3.228;2024-01-15T13:56:06;5.78;;;2.08;;
49578;SDS011;35483;50.828;3.228;2024-01-15T13:58:35;5.05;;;1.88;;
49578;SDS011;35483;50.828;3.228;2024-01-15T14:01:02;6.35;;;1.92;;
49578;SDS011;35483;50.828;3.228;2024-01-15T14:03:31;7.07;;;2.20;;
49578;SDS011;35483;50.828;3.228;2024-01-15T14:05:58;3.88;;;1.95;;
49578;SDS011;35483;50.828;3.228;2024-01-15T14:08:24;4.63;;;1.85;;
49578;SDS011;35483;50.828;3.228;2024-01-15T14:10:50;6.10;;;2.42;;
49578;SDS011;35483;50.828;3.228;2024-01-15T14:13:16;4.10;;;2.25;;
49578;SDS011;35483;50.828;3.228;2024-01-15T14:15:42;6.35;;;2.22;;
49578;SDS011;35483;50.828;3.228;2024-01-15T14:18:08;6.03;;;2.78;;
49578;SDS011;35483;50.828;3.228;2024-01-15T14:20:33;5.55;;;2.40;;
49578;SDS011;35483;50.828;3.228;2024-01-15T14:22:59;3.67;;;1.60;;
49578;SDS011;35483;50.828;3.228;2024-01-15T14:25:25;5.07;;;2.08;;
49578;SDS011;35483;50.828;3.228;2024-01-15T14:27:51;7.30;;;2.15;;
49578;SDS011;35483;50.828;3.228;2024-01-15T14:30:17;4.45;;;2.00;;
49578;SDS011;35483;50.828;3.228;2024-01-15T14:32:43;6.85;;;2.67;;
49578;SDS011;35483;50.828;3.228;2024-01-15T14:35:09;3.90;;;2.13;;
49578;SDS011;35483;50.828;3.228;2024-01-15T14:37:38;4.45;;;1.70;;
49578;SDS011;35483;50.828;3.228;2024-01-15T14:40:04;4.30;;;1.70;;
49578;SDS011;35483;50.828;3.228;2024-01-15T14:42:33;6.97;;;3.13;;
49578;SDS011;35483;50.828;3.228;2024-01-15T14:45:00;4.13;;;1.80;;
49578;SDS011;35483;50.828;3.228;2024-01-15T14:47:28;5.47;;;2.25;;
49578;SDS011;35483;50.828;3.228;2024-01-15T14:49:54;7.78;;;2.35;;
49578;SDS011;35483;50.828;3.228;2024-01-15T14:52:22;6.13;;;2.20;;
49578;SDS011;35483;50.828;3.228;2024-01-15T14:54:49;8.27;;;2.20;;
49578;SDS011;35483;50.828;3.228;2024-01-15T14:57:15;6.03;;;1.90;;
49578;SDS011;35483;50.828;3.228;2024-01-15T14:59:41;4.47;;;2.30;;
49578;SDS011;35483;50.828;3.228;2024-01-15T15:02:06;8.30;;;2.28;;
49578;SDS011;35483;50.828;3.228;2024-01-15T15:04:32;5.28;;;1.77;;
49578;SDS011;35483;50.828;3.228;2024-01-15T15:06:59;6.07;;;2.25;;